Time;durP1;ratioP1;P1;durP2;ratioP2;P2;SDS_P1;SDS_P2;PMS_P1;PMS_P2;Temp;Humidity;BMP_temperature;BMP_pressure;BME280_temperature;BME280_humidity;BME280_pressure;Samples;Min_cycle;Max_cycle;Signal;HPM_P1;HPM_P2
2022/06/18 00:00:12;;;;;;;6.80;3.47;;;;;;;;;;340178;29;1143;-84
2022/06/18 00:00:24;;;;;;;7.90;3.47;;;;;;;;;;339795;29;864;-85
2022/06/18 00:00:35;;;;;;;6.63;3.60;;;;;;;;;;340241;29;924;-84
2022/06/18 00:00:47;;;;;;;5.83;3.53;;;;;;;;;;340254;29;840;-90
2022/06/18 00:00:58;;;;;;;5.40;3.42;;;;;;;;;;338908;29;1246;-85
2022/06/18 00:01:09;;;;;;;5.93;3.63;;;;;;;;;;338736;29;1078;-84
2022/06/18 00:01:19;;;;;;;5.95;3.72;;;;;;;;;;338893;29;915;-85
2022/06/18 00:01:34;;;;;;;6.10;3.47;;;;;;;;;;339769;29;845;-89
2022/06/18 00:01:44;;;;;;;7.93;3.10;;;;;;;;;;340243;29;856;-85
2022/06/18 00:01:57;;;;;;;7.68;3.15;;;;;;;;;;341587;29;860;-84
2022/06/18 00:02:12;;;;;;;7.03;3.42;;;;;;;;;;340015;29;2007;-84
2022/06/18 00:02:23;;;;;;;5.33;3.37;;;;;;;;;;340244;29;888;-85
2022/06/18 00:02:33;;;;;;;4.10;3.10;;;;;;;;;;340251;29;817;-85
2022/06/18 00:02:44;;;;;;;4.78;3.22;;;;;;;;;;338789;29;943;-90
2022/06/18 00:02:55;;;;;;;4.43;3.00;;;;;;;;;;338876;29;1451;-85
2022/06/18 00:03:05;;;;;;;5.78;3.10;;;;;;;;;;338723;29;1579;-88
2022/06/18 00:03:16;;;;;;;5.33;2.93;;;;;;;;;;339736;29;1551;-89
2022/06/18 00:03:27;;;;;;;5.90;2.97;;;;;;;;;;339951;29;1175;-88
2022/06/18 00:03:38;;;;;;;5.15;2.92;;;;;;;;;;339982;29;1122;-88
2022/06/18 00:03:49;;;;;;;6.13;3.20;;;;;;;;;;339671;29;1697;-88
2022/06/18 00:04:04;;;;;;;6.55;3.35;;;;;;;;;;340124;29;1512;-89
2022/06/18 00:04:20;;;;;;;7.20;3.58;;;;;;;;;;339685;29;1726;-90
2022/06/18 00:04:31;;;;;;;7.00;3.45;;;;;;;;;;340099;29;1606;-90
2022/06/18 00:04:43;;;;;;;8.02;3.78;;;;;;;;;;338492;29;1286;-91
2022/06/18 00:04:53;;;;;;;7.85;3.80;;;;;;;;;;338943;29;920;-89
2022/06/18 00:05:04;;;;;;;6.00;3.93;;;;;;;;;;338979;29;959;-86
2022/06/18 00:05:17;;;;;;;6.05;3.83;;;;;;;;;;338633;29;924;-90
2022/06/18 00:05:28;;;;;;;6.40;3.95;;;;;;;;;;338905;29;908;-86
2022/06/18 00:05:40;;;;;;;6.53;3.95;;;;;;;;;;339748;29;1828;-90
2022/06/18 00:05:56;;;;;;;5.90;3.88;;;;;;;;;;339040;29;1448;-90
2022/06/18 00:06:08;;;;;;;6.07;4.03;;;;;;;;;;339035;29;908;-89
2022/06/18 00:06:19;;;;;;;6.22;4.00;;;;;;;;;;339635;29;1603;-88
2022/06/18 00:06:33;;;;;;;6.43;4.00;;;;;;;;;;340195;29;848;-89
2022/06/18 00:07:03;;;;;;;5.05;3.75;;;;;;;;;;341342;29;963;-90
2022/06/18 00:07:17;;;;;;;6.65;3.90;;;;;;;;;;341173;29;2031;-89
2022/06/18 00:07:28;;;;;;;5.88;4.15;;;;;;;;;;341360;29;880;-90
2022/06/18 00:07:43;;;;;;;6.50;4.20;;;;;;;;;;341320;29;1246;-86
2022/06/18 00:07:56;;;;;;;6.22;4.00;;;;;;;;;;341486;29;851;-89
2022/06/18 00:08:13;;;;;;;5.57;3.80;;;;;;;;;;341565;29;800;-88
2022/06/18 00:08:28;;;;;;;5.53;3.88;;;;;;;;;;342771;28;969;-86
2022/06/18 00:08:38;;;;;;;5.80;4.32;;;;;;;;;;342533;28;1376;-90
2022/06/18 00:08:50;;;;;;;5.53;4.20;;;;;;;;;;342893;28;844;-90
2022/06/18 00:09:00;;;;;;;6.85;4.07;;;;;;;;;;341430;29;927;-89
2022/06/18 00:09:12;;;;;;;7.60;4.00;;;;;;;;;;341254;29;888;-86
2022/06/18 00:09:28;;;;;;;7.55;4.00;;;;;;;;;;341980;28;928;-86
2022/06/18 00:09:44;;;;;;;7.47;4.25;;;;;;;;;;342914;28;852;-89
2022/06/18 00:10:04;;;;;;;7.53;4.32;;;;;;;;;;342918;28;954;-86
2022/06/18 00:10:21;;;;;;;6.65;4.00;;;;;;;;;;342273;28;903;-84
2022/06/18 00:10:32;;;;;;;7.03;3.97;;;;;;;;;;342567;28;946;-89
2022/06/18 00:10:43;;;;;;;6.68;4.05;;;;;;;;;;342904;28;844;-89
2022/06/18 00:13:39;;;;;;;6.25;4.10;;;;;;;;;;341842;28;948;-85
2022/06/18 00:13:45;;;;;;;8.35;5.05;;;;;;;;;;340220;29;1821;-89
2022/06/18 00:13:55;;;;;;;8.63;5.03;;;;;;;;;;340320;29;1915;-85
2022/06/18 00:14:06;;;;;;;9.07;5.00;;;;;;;;;;340747;29;1747;-85
2022/06/18 00:14:16;;;;;;;7.00;4.53;;;;;;;;;;339720;29;1246;-85
2022/06/18 00:14:27;;;;;;;7.53;4.60;;;;;;;;;;340223;29;911;-84
2022/06/18 00:14:38;;;;;;;6.73;4.60;;;;;;;;;;340132;29;1028;-90
2022/06/18 00:14:48;;;;;;;7.43;4.93;;;;;;;;;;340160;29;895;-89
2022/06/18 00:14:59;;;;;;;7.68;5.05;;;;;;;;;;338759;29;1204;-88
2022/06/18 00:15:18;;;;;;;7.53;5.10;;;;;;;;;;340169;29;894;-84
2022/06/18 00:15:32;;;;;;;6.95;4.80;;;;;;;;;;340857;29;1469;-89
2022/06/18 00:15:42;;;;;;;7.15;4.43;;;;;;;;;;341371;29;1006;-86
2022/06/18 00:15:56;;;;;;;8.25;4.20;;;;;;;;;;341583;29;821;-89
2022/06/18 00:16:14;;;;;;;7.05;3.88;;;;;;;;;;341497;29;944;-85
2022/06/18 00:16:24;;;;;;;6.05;3.90;;;;;;;;;;340105;29;1521;-89
2022/06/18 00:16:36;;;;;;;7.22;4.22;;;;;;;;;;338605;29;1570;-88
2022/06/18 00:16:46;;;;;;;7.82;4.43;;;;;;;;;;337059;29;1725;-89
2022/06/18 00:16:57;;;;;;;7.17;4.37;;;;;;;;;;337522;29;1730;-87
2022/06/18 00:17:12;;;;;;;6.30;4.03;;;;;;;;;;337531;29;1218;-89
2022/06/18 00:17:23;;;;;;;5.88;3.88;;;;;;;;;;336940;29;1770;-87
2022/06/18 00:17:34;;;;;;;7.07;4.07;;;;;;;;;;336257;29;1425;-84
2022/06/18 00:17:45;;;;;;;6.45;3.97;;;;;;;;;;336062;29;835;-86
2022/06/18 00:17:56;;;;;;;6.13;3.78;;;;;;;;;;336224;29;873;-89
2022/06/18 00:18:12;;;;;;;6.25;3.60;;;;;;;;;;337550;29;905;-89
2022/06/18 00:18:22;;;;;;;6.95;3.88;;;;;;;;;;338550;29;900;-88
2022/06/18 00:18:33;;;;;;;8.02;4.18;;;;;;;;;;337576;29;1508;-88
2022/06/18 00:18:44;;;;;;;7.67;4.30;;;;;;;;;;337781;29;1695;-88
2022/06/18 00:18:55;;;;;;;6.38;4.10;;;;;;;;;;338304;29;1752;-89
2022/06/18 00:19:05;;;;;;;6.37;3.93;;;;;;;;;;338989;29;915;-90
2022/06/18 00:19:17;;;;;;;7.43;4.00;;;;;;;;;;338824;29;1068;-84
2022/06/18 00:19:27;;;;;;;7.68;4.20;;;;;;;;;;338883;29;1642;-90
2022/06/18 00:19:38;;;;;;;7.22;4.50;;;;;;;;;;339859;29;1638;-85
2022/06/18 00:19:49;;;;;;;6.93;4.47;;;;;;;;;;339915;29;1657;-85
2022/06/18 00:20:00;;;;;;;6.13;4.40;;;;;;;;;;340527;29;919;-90
2022/06/18 00:20:12;;;;;;;6.35;4.03;;;;;;;;;;341582;29;801;-84
2022/06/18 00:20:25;;;;;;;6.88;3.95;;;;;;;;;;339901;29;1515;-86
2022/06/18 00:20:37;;;;;;;7.15;4.20;;;;;;;;;;340158;29;936;-84
2022/06/18 00:20:48;;;;;;;6.80;4.30;;;;;;;;;;340190;29;919;-84
2022/06/18 00:21:00;;;;;;;6.90;4.23;;;;;;;;;;340126;29;1653;-84
2022/06/18 00:21:17;;;;;;;8.10;4.20;;;;;;;;;;340191;29;844;-86
2022/06/18 00:21:28;;;;;;;7.05;4.05;;;;;;;;;;340174;29;1772;-85
2022/06/18 00:21:38;;;;;;;5.85;3.70;;;;;;;;;;340337;29;1752;-85
2022/06/18 00:21:50;;;;;;;5.95;3.70;;;;;;;;;;340205;29;911;-86
2022/06/18 00:22:02;;;;;;;5.82;3.85;;;;;;;;;;340294;29;907;-84
2022/06/18 00:22:19;;;;;;;5.68;3.88;;;;;;;;;;338918;29;1602;-84
2022/06/18 00:22:29;;;;;;;5.60;3.63;;;;;;;;;;340033;29;1527;-88
2022/06/18 00:22:43;;;;;;;6.03;3.80;;;;;;;;;;339856;29;1606;-85
2022/06/18 00:22:57;;;;;;;6.00;3.97;;;;;;;;;;340695;29;837;-86
2022/06/18 00:23:14;;;;;;;5.88;4.93;;;;;;;;;;341499;29;930;-85
2022/06/18 00:23:25;;;;;;;5.68;4.80;;;;;;;;;;341207;29;1246;-85
2022/06/18 00:23:37;;;;;;;7.43;4.00;;;;;;;;;;341605;29;863;-85
2022/06/18 00:25:17;;;;;;;5.65;3.78;;;;;;;;;;340232;29;1494;-89
2022/06/18 00:25:46;;;;;;;6.10;4.00;;;;;;;;;;341369;29;959;-84
2022/06/18 00:25:57;;;;;;;6.65;4.20;;;;;;;;;;341391;29;1390;-84
2022/06/18 00:26:10;;;;;;;7.38;4.05;;;;;;;;;;341404;29;1333;-85
2022/06/18 00:26:21;;;;;;;6.95;3.95;;;;;;;;;;341222;29;1653;-87
2022/06/18 00:26:40;;;;;;;6.72;4.15;;;;;;;;;;341381;29;934;-84
2022/06/18 00:26:51;;;;;;;6.95;4.03;;;;;;;;;;341427;29;943;-89
2022/06/18 00:27:01;;;;;;;6.60;3.93;;;;;;;;;;341436;29;899;-88
2022/06/18 00:27:14;;;;;;;7.00;4.28;;;;;;;;;;341593;29;888;-85
2022/06/18 00:27:25;;;;;;;7.50;4.35;;;;;;;;;;341230;29;880;-85
2022/06/18 00:27:35;;;;;;;8.23;4.40;;;;;;;;;;341579;29;980;-84
2022/06/18 00:27:46;;;;;;;7.18;4.30;;;;;;;;;;340818;29;1637;-85
2022/06/18 00:27:57;;;;;;;7.33;4.20;;;;;;;;;;341193;29;1704;-83
2022/06/18 00:28:19;;;;;;;6.40;4.07;;;;;;;;;;339672;29;1535;-91
2022/06/18 00:28:31;;;;;;;6.75;4.20;;;;;;;;;;339837;29;1405;-86
2022/06/18 00:28:42;;;;;;;7.97;4.53;;;;;;;;;;338971;29;1954;-89
2022/06/18 00:28:53;;;;;;;7.50;4.40;;;;;;;;;;340049;29;963;-89
2022/06/18 00:29:05;;;;;;;6.93;4.30;;;;;;;;;;339992;29;912;-89
2022/06/18 00:29:18;;;;;;;7.43;4.30;;;;;;;;;;338948;29;1740;-90
2022/06/18 00:29:28;;;;;;;8.32;4.50;;;;;;;;;;340037;29;963;-88
2022/06/18 00:29:39;;;;;;;9.95;5.10;;;;;;;;;;340269;29;864;-89
2022/06/18 00:29:51;;;;;;;11.30;6.37;;;;;;;;;;340252;29;951;-89
2022/06/18 00:30:01;;;;;;;13.30;7.40;;;;;;;;;;340010;29;923;-88
2022/06/18 00:30:15;;;;;;;12.57;7.20;;;;;;;;;;340252;29;828;-90
2022/06/18 00:30:28;;;;;;;9.80;5.75;;;;;;;;;;339803;29;1404;-90
2022/06/18 00:30:39;;;;;;;7.80;5.03;;;;;;;;;;338717;29;1298;-89
2022/06/18 00:30:51;;;;;;;7.88;4.97;;;;;;;;;;339016;29;857;-89
2022/06/18 00:31:02;;;;;;;8.07;4.70;;;;;;;;;;339581;29;829;-89
2022/06/18 00:31:13;;;;;;;7.47;4.40;;;;;;;;;;340286;29;904;-89
2022/06/18 00:31:23;;;;;;;7.75;4.40;;;;;;;;;;338071;29;1010;-85
2022/06/18 00:31:33;;;;;;;7.85;4.28;;;;;;;;;;337642;29;861;-89
2022/06/18 00:31:45;;;;;;;7.93;4.07;;;;;;;;;;338847;29;845;-89
2022/06/18 00:31:55;;;;;;;6.80;4.00;;;;;;;;;;338731;29;1041;-84
2022/06/18 00:32:07;;;;;;;5.82;4.05;;;;;;;;;;338760;29;1662;-87
2022/06/18 00:32:17;;;;;;;5.28;4.00;;;;;;;;;;339937;29;1706;-85
2022/06/18 00:32:28;;;;;;;5.72;4.10;;;;;;;;;;341168;29;1660;-89
2022/06/18 00:32:38;;;;;;;7.13;4.10;;;;;;;;;;341147;29;805;-86
2022/06/18 00:32:49;;;;;;;7.10;4.13;;;;;;;;;;341610;29;978;-90
2022/06/18 00:32:59;;;;;;;7.87;4.07;;;;;;;;;;339722;29;1555;-89
2022/06/18 00:33:10;;;;;;;7.75;4.28;;;;;;;;;;340076;29;1658;-89
2022/06/18 00:33:22;;;;;;;7.78;4.43;;;;;;;;;;339796;28;1308;-86
2022/06/18 00:33:35;;;;;;;7.95;4.80;;;;;;;;;;341132;29;951;-88
2022/06/18 00:33:46;;;;;;;7.57;5.20;;;;;;;;;;341405;29;1684;-86
2022/06/18 00:33:57;;;;;;;8.60;5.17;;;;;;;;;;341269;29;1906;-88
2022/06/18 00:34:07;;;;;;;8.52;4.90;;;;;;;;;;341518;29;948;-87
2022/06/18 00:34:18;;;;;;;9.27;4.97;;;;;;;;;;340258;29;824;-90
2022/06/18 00:34:28;;;;;;;7.43;5.47;;;;;;;;;;341266;29;836;-90
2022/06/18 00:34:39;;;;;;;8.00;5.93;;;;;;;;;;341588;29;867;-89
2022/06/18 00:34:49;;;;;;;8.60;5.97;;;;;;;;;;341633;29;907;-84
2022/06/18 00:35:00;;;;;;;8.93;5.88;;;;;;;;;;341457;29;841;-84
2022/06/18 00:35:12;;;;;;;8.03;5.70;;;;;;;;;;341675;28;832;-84
2022/06/18 00:35:22;;;;;;;7.43;5.60;;;;;;;;;;341476;28;931;-84
2022/06/18 00:35:33;;;;;;;7.22;5.60;;;;;;;;;;341655;28;816;-89
2022/06/18 00:35:45;;;;;;;7.65;5.50;;;;;;;;;;341668;28;805;-84
2022/06/18 00:36:00;;;;;;;8.20;5.43;;;;;;;;;;341497;28;883;-85
2022/06/18 00:36:17;;;;;;;7.18;5.70;;;;;;;;;;341634;28;1018;-88
2022/06/18 00:36:28;;;;;;;9.05;6.20;;;;;;;;;;339854;29;1527;-86
2022/06/18 00:36:41;;;;;;;9.77;5.93;;;;;;;;;;341107;28;1748;-84
2022/06/18 00:36:52;;;;;;;7.72;5.47;;;;;;;;;;340232;29;856;-89
2022/06/18 00:37:04;;;;;;;7.17;5.30;;;;;;;;;;339964;29;868;-88
2022/06/18 00:37:17;;;;;;;7.30;5.20;;;;;;;;;;340113;29;950;-89
2022/06/18 00:37:28;;;;;;;7.15;5.57;;;;;;;;;;339922;29;845;-89
2022/06/18 00:37:39;;;;;;;6.63;5.63;;;;;;;;;;340167;29;907;-89
2022/06/18 00:37:56;;;;;;;6.50;5.57;;;;;;;;;;340237;29;884;-89
2022/06/18 00:38:13;;;;;;;7.80;5.93;;;;;;;;;;340106;29;880;-85
2022/06/18 00:38:27;;;;;;;8.60;6.18;;;;;;;;;;340476;28;1342;-86
2022/06/18 00:38:40;;;;;;;8.27;5.85;;;;;;;;;;344277;28;839;-84
2022/06/18 00:38:50;;;;;;;8.35;5.55;;;;;;;;;;344150;28;965;-85
2022/06/18 00:39:01;;;;;;;9.60;5.90;;;;;;;;;;342725;28;1541;-90
2022/06/18 00:39:17;;;;;;;9.55;6.00;;;;;;;;;;342860;28;824;-89
2022/06/18 00:39:28;;;;;;;9.00;5.93;;;;;;;;;;340802;29;1400;-88
2022/06/18 00:39:39;;;;;;;8.88;6.10;;;;;;;;;;340353;29;915;-84
2022/06/18 00:39:51;;;;;;;8.90;6.20;;;;;;;;;;340230;29;983;-84
2022/06/18 00:40:26;;;;;;;8.55;5.78;;;;;;;;;;338258;29;1435;-85
2022/06/18 00:40:41;;;;;;;10.23;5.93;;;;;;;;;;333609;29;1457;-85
2022/06/18 00:40:52;;;;;;;8.30;5.75;;;;;;;;;;336522;29;1391;-89
2022/06/18 00:41:04;;;;;;;8.02;5.72;;;;;;;;;;337499;29;895;-90
2022/06/18 00:41:21;;;;;;;8.25;5.75;;;;;;;;;;337652;29;841;-85
2022/06/18 00:41:34;;;;;;;8.20;5.80;;;;;;;;;;337222;29;900;-84
2022/06/18 00:41:51;;;;;;;8.98;5.90;;;;;;;;;;337521;29;1233;-84
2022/06/18 00:42:07;;;;;;;8.10;5.72;;;;;;;;;;337507;29;924;-88
2022/06/18 00:42:26;;;;;;;8.23;5.88;;;;;;;;;;337535;29;967;-85
2022/06/18 00:42:37;;;;;;;8.73;6.40;;;;;;;;;;338683;29;1016;-84
2022/06/18 00:42:49;;;;;;;8.98;6.65;;;;;;;;;;338779;29;983;-84
2022/06/18 00:43:14;;;;;;;10.45;6.55;;;;;;;;;;338563;29;1269;-84
2022/06/18 00:43:40;;;;;;;8.60;5.82;;;;;;;;;;339853;29;926;-84
2022/06/18 00:43:55;;;;;;;7.63;5.70;;;;;;;;;;338756;29;924;-85
2022/06/18 00:44:32;;;;;;;8.05;5.70;;;;;;;;;;338946;29;892;-88
2022/06/18 00:44:47;;;;;;;8.23;5.63;;;;;;;;;;338344;29;1043;-90
2022/06/18 00:45:00;;;;;;;9.38;5.97;;;;;;;;;;338334;29;960;-84
2022/06/18 00:45:28;;;;;;;10.55;6.05;;;;;;;;;;338749;29;1278;-84
2022/06/18 00:45:39;;;;;;;6.90;5.35;;;;;;;;;;340207;29;911;-83
2022/06/18 00:45:54;;;;;;;7.63;5.38;;;;;;;;;;339740;29;956;-85
2022/06/18 00:46:13;;;;;;;8.65;5.80;;;;;;;;;;338810;29;1785;-86
2022/06/18 00:46:46;;;;;;;9.07;6.05;;;;;;;;;;337456;29;919;-85
2022/06/18 00:47:21;;;;;;;8.10;5.90;;;;;;;;;;337455;29;853;-85
2022/06/18 00:47:36;;;;;;;10.07;6.18;;;;;;;;;;337036;29;857;-84
2022/06/18 00:48:00;;;;;;;9.43;5.88;;;;;;;;;;338745;29;1222;-84
2022/06/18 00:48:48;;;;;;;8.82;5.78;;;;;;;;;;338783;29;841;-84
2022/06/18 00:49:09;;;;;;;9.70;5.50;;;;;;;;;;339673;29;1008;-84
2022/06/18 00:49:32;;;;;;;9.38;5.95;;;;;;;;;;340179;29;1033;-84
2022/06/18 00:49:49;;;;;;;8.13;5.53;;;;;;;;;;341970;28;1014;-87
2022/06/18 00:50:05;;;;;;;7.50;5.35;;;;;;;;;;342754;28;1033;-84
2022/06/18 00:50:33;;;;;;;8.75;5.68;;;;;;;;;;342815;28;931;-84
2022/06/18 00:50:49;;;;;;;7.72;5.30;;;;;;;;;;342873;28;863;-85
2022/06/18 00:51:10;;;;;;;7.05;5.47;;;;;;;;;;342655;28;1255;-84
2022/06/18 00:51:43;;;;;;;9.57;5.82;;;;;;;;;;342823;28;946;-84
2022/06/18 00:51:57;;;;;;;9.30;5.93;;;;;;;;;;341231;29;1043;-84
2022/06/18 00:52:32;;;;;;;8.15;5.70;;;;;;;;;;339945;29;927;-89
2022/06/18 00:52:53;;;;;;;6.43;5.40;;;;;;;;;;340124;29;896;-84
2022/06/18 00:53:12;;;;;;;7.13;5.82;;;;;;;;;;339769;29;1349;-87
2022/06/18 00:53:33;;;;;;;7.65;6.07;;;;;;;;;;340096;29;1070;-84
2022/06/18 00:53:48;;;;;;;7.50;5.72;;;;;;;;;;340136;29;935;-84
2022/06/18 00:54:13;;;;;;;8.50;6.28;;;;;;;;;;339950;29;1966;-85
2022/06/18 00:54:34;;;;;;;10.70;7.00;;;;;;;;;;341393;29;887;-89
2022/06/18 00:54:55;;;;;;;9.45;6.07;;;;;;;;;;338684;29;1771;-87
2022/06/18 00:55:14;;;;;;;8.50;6.60;;;;;;;;;;338858;29;896;-92
2022/06/18 00:55:24;;;;;;;8.23;6.82;;;;;;;;;;339982;29;915;-88
2022/06/18 00:55:52;;;;;;;8.40;6.43;;;;;;;;;;338584;29;1334;-84
2022/06/18 00:56:19;;;;;;;7.75;6.30;;;;;;;;;;338675;29;1486;-89
2022/06/18 00:56:36;;;;;;;9.07;6.50;;;;;;;;;;338715;29;849;-85
2022/06/18 00:57:10;;;;;;;11.82;7.07;;;;;;;;;;340119;29;875;-85
2022/06/18 00:57:28;;;;;;;9.18;6.32;;;;;;;;;;340868;29;920;-82
2022/06/18 00:57:47;;;;;;;8.45;6.18;;;;;;;;;;341255;29;797;-81
2022/06/18 00:58:23;;;;;;;9.25;6.60;;;;;;;;;;341354;29;1210;-82
2022/06/18 00:58:45;;;;;;;7.13;6.18;;;;;;;;;;341000;29;885;-82
2022/06/18 00:59:13;;;;;;;9.38;6.40;;;;;;;;;;341357;29;911;-83
2022/06/18 00:59:31;;;;;;;10.65;6.40;;;;;;;;;;341586;28;920;-81
2022/06/18 00:59:48;;;;;;;9.43;6.47;;;;;;;;;;341534;28;867;-81
2022/06/18 01:00:14;;;;;;;8.65;6.22;;;;;;;;;;341556;28;883;-82
2022/06/18 01:00:39;;;;;;;8.85;6.55;;;;;;;;;;341511;28;1042;-82
2022/06/18 01:00:50;;;;;;;8.10;6.00;;;;;;;;;;341644;28;980;-81
2022/06/18 01:01:02;;;;;;;7.75;6.00;;;;;;;;;;341576;28;892;-82
2022/06/18 01:01:22;;;;;;;8.77;6.03;;;;;;;;;;341383;29;1257;-81
2022/06/18 01:01:38;;;;;;;9.50;6.35;;;;;;;;;;341061;29;1266;-81
2022/06/18 01:01:50;;;;;;;9.73;6.60;;;;;;;;;;340056;29;888;-81
2022/06/18 01:02:01;;;;;;;8.55;6.20;;;;;;;;;;339937;29;1725;-81
2022/06/18 01:02:21;;;;;;;8.43;5.82;;;;;;;;;;339725;29;963;-81
2022/06/18 01:02:39;;;;;;;8.57;5.68;;;;;;;;;;339764;29;1371;-81
2022/06/18 01:02:50;;;;;;;9.52;5.80;;;;;;;;;;340172;29;865;-81
2022/06/18 01:03:00;;;;;;;8.45;5.72;;;;;;;;;;340123;29;891;-81
2022/06/18 01:03:38;;;;;;;7.30;5.80;;;;;;;;;;338848;29;1249;-81
2022/06/18 01:03:49;;;;;;;7.78;6.18;;;;;;;;;;341231;29;959;-81
2022/06/18 01:04:00;;;;;;;7.22;5.97;;;;;;;;;;341214;29;1242;-81
2022/06/18 01:04:25;;;;;;;7.60;6.20;;;;;;;;;;341526;29;808;-82
2022/06/18 01:04:36;;;;;;;7.53;5.75;;;;;;;;;;341159;29;879;-81
2022/06/18 01:04:47;;;;;;;7.90;5.70;;;;;;;;;;340046;29;1241;-81
2022/06/18 01:04:58;;;;;;;8.13;6.00;;;;;;;;;;340152;29;1172;-81
2022/06/18 01:05:23;;;;;;;7.90;5.93;;;;;;;;;;340924;29;955;-81
2022/06/18 01:05:38;;;;;;;9.00;5.55;;;;;;;;;;341369;29;875;-80
2022/06/18 01:05:48;;;;;;;9.63;5.88;;;;;;;;;;341498;29;982;-81
2022/06/18 01:06:23;;;;;;;9.63;6.32;;;;;;;;;;341494;29;808;-80
2022/06/18 01:06:34;;;;;;;9.55;6.07;;;;;;;;;;339961;29;892;-81
2022/06/18 01:06:44;;;;;;;10.45;6.30;;;;;;;;;;340605;29;930;-81
2022/06/18 01:07:04;;;;;;;10.10;5.93;;;;;;;;;;341478;29;816;-81
2022/06/18 01:07:37;;;;;;;7.90;5.57;;;;;;;;;;341469;29;926;-81
2022/06/18 01:08:03;;;;;;;7.53;5.70;;;;;;;;;;341319;29;867;-80
2022/06/18 01:08:16;;;;;;;7.30;5.38;;;;;;;;;;341096;29;1236;-81
2022/06/18 01:08:30;;;;;;;8.15;5.95;;;;;;;;;;340938;29;1439;-81
2022/06/18 01:08:42;;;;;;;7.95;6.15;;;;;;;;;;341092;29;923;-81
2022/06/18 01:08:59;;;;;;;8.75;6.30;;;;;;;;;;341466;29;1364;-81
2022/06/18 01:09:14;;;;;;;9.50;6.50;;;;;;;;;;341407;29;896;-81
2022/06/18 01:09:25;;;;;;;8.20;6.15;;;;;;;;;;341176;29;1336;-81
2022/06/18 01:09:36;;;;;;;7.53;6.07;;;;;;;;;;339671;29;832;-81
2022/06/18 01:09:49;;;;;;;7.53;5.90;;;;;;;;;;339064;29;824;-81
2022/06/18 01:10:01;;;;;;;7.35;5.80;;;;;;;;;;338603;29;1477;-81
2022/06/18 01:10:19;;;;;;;7.65;5.97;;;;;;;;;;339842;29;939;-81
2022/06/18 01:10:37;;;;;;;7.65;6.03;;;;;;;;;;340086;29;848;-81
2022/06/18 01:10:59;;;;;;;6.60;5.90;;;;;;;;;;340125;29;939;-81
2022/06/18 01:11:20;;;;;;;9.95;6.28;;;;;;;;;;341378;29;931;-82
2022/06/18 01:11:36;;;;;;;9.10;6.15;;;;;;;;;;340493;29;979;-81
2022/06/18 01:11:47;;;;;;;8.48;6.13;;;;;;;;;;341157;29;994;-81
2022/06/18 01:11:58;;;;;;;7.03;6.03;;;;;;;;;;341324;29;1360;-81
2022/06/18 01:12:10;;;;;;;7.22;6.45;;;;;;;;;;341502;29;911;-81
2022/06/18 01:12:21;;;;;;;7.72;6.53;;;;;;;;;;340086;29;1373;-82
2022/06/18 01:12:31;;;;;;;8.18;6.50;;;;;;;;;;340103;29;1019;-81
2022/06/18 01:12:42;;;;;;;7.68;6.35;;;;;;;;;;339552;29;1488;-81
2022/06/18 01:12:53;;;;;;;7.10;6.37;;;;;;;;;;339807;29;1311;-81
2022/06/18 01:13:08;;;;;;;7.40;6.55;;;;;;;;;;339877;29;1345;-81
2022/06/18 01:13:21;;;;;;;7.70;6.30;;;;;;;;;;340110;29;986;-82
2022/06/18 01:13:35;;;;;;;7.00;6.10;;;;;;;;;;341392;29;943;-82
2022/06/18 01:13:45;;;;;;;7.10;6.15;;;;;;;;;;339795;29;856;-81
2022/06/18 01:13:57;;;;;;;7.60;5.97;;;;;;;;;;340110;29;903;-82
2022/06/18 01:14:11;;;;;;;8.07;6.03;;;;;;;;;;340162;29;1961;-81
2022/06/18 01:14:23;;;;;;;8.05;5.57;;;;;;;;;;340087;29;955;-82
2022/06/18 01:14:33;;;;;;;9.50;5.78;;;;;;;;;;339974;29;1139;-81
2022/06/18 01:14:46;;;;;;;10.52;6.18;;;;;;;;;;338290;29;1360;-81
2022/06/18 01:15:10;;;;;;;10.68;6.57;;;;;;;;;;338727;29;960;-82
2022/06/18 01:15:21;;;;;;;9.20;6.50;;;;;;;;;;340176;29;1006;-82
2022/06/18 01:15:32;;;;;;;8.38;6.20;;;;;;;;;;339941;29;1118;-81
2022/06/18 01:15:45;;;;;;;7.32;5.97;;;;;;;;;;341076;29;1326;-81
2022/06/18 01:15:57;;;;;;;7.32;5.82;;;;;;;;;;340000;29;1256;-82
2022/06/18 01:16:10;;;;;;;7.38;5.80;;;;;;;;;;338734;29;1150;-81
2022/06/18 01:16:21;;;;;;;8.02;6.32;;;;;;;;;;339651;29;1300;-81
2022/06/18 01:16:33;;;;;;;9.10;6.60;;;;;;;;;;338633;29;1226;-82
2022/06/18 01:16:44;;;;;;;9.05;6.60;;;;;;;;;;338396;29;1456;-82
2022/06/18 01:16:58;;;;;;;10.57;7.00;;;;;;;;;;338616;29;1242;-81
2022/06/18 01:17:09;;;;;;;10.02;6.60;;;;;;;;;;338455;29;1420;-81
2022/06/18 01:17:20;;;;;;;9.23;6.45;;;;;;;;;;338607;29;1324;-81
2022/06/18 01:17:32;;;;;;;8.40;6.07;;;;;;;;;;338693;29;1332;-81
2022/06/18 01:17:42;;;;;;;8.27;6.05;;;;;;;;;;338571;29;916;-81
2022/06/18 01:17:54;;;;;;;8.77;6.10;;;;;;;;;;339433;29;852;-81
2022/06/18 01:18:05;;;;;;;9.13;6.15;;;;;;;;;;340103;29;840;-81
2022/06/18 01:18:16;;;;;;;8.27;5.78;;;;;;;;;;339997;29;1146;-82
2022/06/18 01:18:28;;;;;;;7.78;5.60;;;;;;;;;;340531;29;880;-81
2022/06/18 01:18:39;;;;;;;8.50;5.78;;;;;;;;;;341468;29;852;-81
2022/06/18 01:18:51;;;;;;;9.23;5.80;;;;;;;;;;341547;29;852;-82
2022/06/18 01:19:06;;;;;;;8.10;5.90;;;;;;;;;;341435;29;899;-81
2022/06/18 01:19:29;;;;;;;8.13;5.93;;;;;;;;;;341435;29;1276;-81
2022/06/18 01:19:44;;;;;;;8.25;5.90;;;;;;;;;;341323;29;1022;-81
2022/06/18 01:19:55;;;;;;;8.75;5.93;;;;;;;;;;339737;29;1335;-81
2022/06/18 01:20:09;;;;;;;8.43;5.68;;;;;;;;;;341170;29;1296;-81
2022/06/18 01:20:22;;;;;;;7.47;5.30;;;;;;;;;;341526;29;920;-81
2022/06/18 01:20:47;;;;;;;7.50;5.18;;;;;;;;;;341326;29;931;-81
2022/06/18 01:21:21;;;;;;;10.52;5.78;;;;;;;;;;341320;29;927;-81
2022/06/18 01:21:54;;;;;;;8.30;5.32;;;;;;;;;;335750;29;900;-81
2022/06/18 01:22:20;;;;;;;8.20;5.50;;;;;;;;;;335852;29;956;-81
2022/06/18 01:22:45;;;;;;;8.85;6.00;;;;;;;;;;336901;28;1025;-82
2022/06/18 01:23:11;;;;;;;7.88;5.60;;;;;;;;;;341313;29;892;-81
2022/06/18 01:23:34;;;;;;;7.60;5.30;;;;;;;;;;340076;29;865;-82
2022/06/18 01:23:50;;;;;;;6.35;4.88;;;;;;;;;;339844;29;904;-82
2022/06/18 01:24:16;;;;;;;8.15;5.22;;;;;;;;;;340022;29;884;-81
2022/06/18 01:24:38;;;;;;;7.43;5.07;;;;;;;;;;339523;29;954;-81
2022/06/18 01:24:49;;;;;;;7.45;5.13;;;;;;;;;;339749;29;1038;-82
2022/06/18 01:24:59;;;;;;;6.78;4.97;;;;;;;;;;341395;29;911;-81
2022/06/18 01:25:11;;;;;;;7.43;4.63;;;;;;;;;;341431;29;891;-82
2022/06/18 01:25:23;;;;;;;7.30;4.97;;;;;;;;;;341109;29;1254;-81
2022/06/18 01:25:34;;;;;;;7.35;5.15;;;;;;;;;;340901;29;1293;-81
2022/06/18 01:25:47;;;;;;;6.10;4.60;;;;;;;;;;338793;29;1130;-81
2022/06/18 01:25:58;;;;;;;5.85;4.40;;;;;;;;;;338818;29;841;-82
2022/06/18 01:26:10;;;;;;;6.47;4.88;;;;;;;;;;338441;29;1286;-81
2022/06/18 01:26:21;;;;;;;10.40;5.22;;;;;;;;;;338892;29;789;-81
2022/06/18 01:26:32;;;;;;;10.82;4.85;;;;;;;;;;338546;29;1453;-81
2022/06/18 01:26:46;;;;;;;10.88;4.75;;;;;;;;;;338708;29;1247;-81
2022/06/18 01:26:57;;;;;;;8.45;4.50;;;;;;;;;;338659;29;1241;-81
2022/06/18 01:27:09;;;;;;;7.88;4.70;;;;;;;;;;338681;29;1286;-80
2022/06/18 01:27:20;;;;;;;7.40;4.80;;;;;;;;;;338883;29;951;-81
2022/06/18 01:27:30;;;;;;;6.70;4.55;;;;;;;;;;339464;29;860;-82
2022/06/18 01:27:41;;;;;;;7.03;4.47;;;;;;;;;;338791;29;1424;-81
2022/06/18 01:27:56;;;;;;;7.90;4.85;;;;;;;;;;338530;29;1178;-82
2022/06/18 01:28:09;;;;;;;7.80;5.38;;;;;;;;;;338830;29;923;-81
2022/06/18 01:28:20;;;;;;;7.45;5.35;;;;;;;;;;338808;29;1353;-81
2022/06/18 01:28:30;;;;;;;7.00;5.10;;;;;;;;;;339673;29;864;-81
2022/06/18 01:28:41;;;;;;;7.07;5.00;;;;;;;;;;338721;29;1152;-81
2022/06/18 01:28:51;;;;;;;7.32;5.03;;;;;;;;;;337203;29;1343;-82
2022/06/18 01:29:02;;;;;;;7.07;4.90;;;;;;;;;;337384;29;1316;-81
2022/06/18 01:29:13;;;;;;;7.05;4.90;;;;;;;;;;337519;29;932;-81
2022/06/18 01:29:23;;;;;;;8.00;5.07;;;;;;;;;;337539;29;944;-81
2022/06/18 01:29:35;;;;;;;8.50;5.20;;;;;;;;;;339556;29;1278;-82
2022/06/18 01:29:46;;;;;;;8.52;5.30;;;;;;;;;;338528;29;1172;-81
2022/06/18 01:29:56;;;;;;;8.38;5.22;;;;;;;;;;338751;29;773;-82
2022/06/18 01:30:09;;;;;;;7.33;4.93;;;;;;;;;;338717;29;1266;-81
2022/06/18 01:30:23;;;;;;;6.50;4.85;;;;;;;;;;340108;29;1196;-81
2022/06/18 01:30:38;;;;;;;5.68;4.88;;;;;;;;;;340047;29;912;-81
2022/06/18 01:30:48;;;;;;;6.68;4.90;;;;;;;;;;340815;29;947;-81
2022/06/18 01:31:00;;;;;;;7.03;4.80;;;;;;;;;;338940;29;1312;-82
2022/06/18 01:31:11;;;;;;;6.85;5.00;;;;;;;;;;338820;29;880;-81
2022/06/18 01:31:21;;;;;;;6.45;5.22;;;;;;;;;;338847;29;860;-81
2022/06/18 01:31:32;;;;;;;6.97;5.50;;;;;;;;;;338407;29;1299;-81
2022/06/18 01:31:43;;;;;;;6.78;5.45;;;;;;;;;;339383;29;1255;-81
2022/06/18 01:31:55;;;;;;;6.70;5.40;;;;;;;;;;339682;29;920;-81
2022/06/18 01:32:08;;;;;;;7.10;5.13;;;;;;;;;;341243;29;892;-81
2022/06/18 01:32:20;;;;;;;8.25;5.03;;;;;;;;;;341496;29;998;-81
2022/06/18 01:32:30;;;;;;;7.97;4.90;;;;;;;;;;341297;29;943;-81
2022/06/18 01:32:46;;;;;;;7.20;4.83;;;;;;;;;;339915;29;1251;-81
2022/06/18 01:32:57;;;;;;;6.95;4.55;;;;;;;;;;340955;29;887;-81
2022/06/18 01:33:09;;;;;;;8.02;4.70;;;;;;;;;;341509;29;1026;-81
2022/06/18 01:33:20;;;;;;;7.95;4.80;;;;;;;;;;341464;29;887;-82
2022/06/18 01:33:34;;;;;;;7.17;4.90;;;;;;;;;;339923;29;931;-81
2022/06/18 01:33:46;;;;;;;7.22;4.85;;;;;;;;;;339994;29;1345;-82
2022/06/18 01:33:57;;;;;;;7.20;4.80;;;;;;;;;;340118;29;935;-82
2022/06/18 01:34:09;;;;;;;6.70;4.70;;;;;;;;;;340119;29;1977;-81
2022/06/18 01:34:20;;;;;;;7.63;4.70;;;;;;;;;;340019;29;927;-82